Terminal Aerodrome Forecast
Issued by NWS Detroit/Pontiac, MI

Home | Current Version | Previous Version | Text Only | Print | Product List | Glossary On
Versions: 1 2 3 4 5 6 7 8 9 10 11 12 13 14 15 16 17 18 19 20 21 22
000
FTUS43 KDTX 030520
TAFFNT
TAF
KFNT 030520Z 0306/0406 VRB03KT P6SM SCT200
     FM031000 27004KT 3SM BR SCT025
     FM031400 30005KT P6SM SCT045
     FM032100 32007KT P6SM SCT050 BKN100
     FM040100 VRB03KT P6SM SCT100=

USA.gov is the U.S. government's official web portal to all federal, state and local government web resources and services.